sensor_id;sensor_type;location;lat;lon;timestamp;temperature;humidity
21502;DHT22;27639;48.674;9.242;2024-01-15T00:01:29;1.70;53.40
21502;DHT22;27639;48.674;9.242;2024-01-15T00:03:54;1.70;53.40
21502;DHT22;27639;48.674;9.242;2024-01-15T00:06:20;1.70;53.40
21502;DHT22;27639;48.674;9.242;2024-01-15T00:08:46;1.70;53.20
21502;DHT22;27639;48.674;9.242;2024-01-15T00:11:11;1.70;53.50
21502;DHT22;27639;48.674;9.242;2024-01-15T00:13:37;1.70;53.40
21502;DHT22;27639;48.674;9.242;2024-01-15T00:16:04;1.70;53.20
21502;DHT22;27639;48.674;9.242;2024-01-15T00:18:30;1.70;53.10
21502;DHT22;27639;48.674;9.242;2024-01-15T00:20:56;1.70;53.10
21502;DHT22;27639;48.674;9.242;2024-01-15T00:23:22;1.70;53.30
21502;DHT22;27639;48.674;9.242;2024-01-15T00:25:48;1.70;53.30
21502;DHT22;27639;48.674;9.242;2024-01-15T00:28:13;1.70;53.30
21502;DHT22;27639;48.674;9.242;2024-01-15T00:30:39;1.80;53.40
21502;DHT22;27639;48.674;9.242;2024-01-15T00:33:05;1.80;53.20
21502;DHT22;27639;48.674;9.242;2024-01-15T00:35:30;1.90;53.10
21502;DHT22;27639;48.674;9.242;2024-01-15T00:37:56;1.90;53.10
21502;DHT22;27639;48.674;9.242;2024-01-15T00:40:21;1.90;53.10
21502;DHT22;27639;48.674;9.242;2024-01-15T00:42:47;1.80;53.30
21502;DHT22;27639;48.674;9.242;2024-01-15T00:45:12;1.90;53.30
21502;DHT22;27639;48.674;9.242;2024-01-15T00:47:38;1.90;53.20
21502;DHT22;27639;48.674;9.242;2024-01-15T00:50:04;1.90;53.10
21502;DHT22;27639;48.674;9.242;2024-01-15T00:52:30;1.80;53.10
21502;DHT22;27639;48.674;9.242;2024-01-15T00:54:55;1.80;53.10
21502;DHT22;27639;48.674;9.242;2024-01-15T00:57:21;1.80;53.10
21502;DHT22;27639;48.674;9.242;2024-01-15T00:59:47;1.80;53.10
21502;DHT22;27639;48.674;9.242;2024-01-15T01:02:12;1.80;53.10
21502;DHT22;27639;48.674;9.242;2024-01-15T01:04:38;1.80;53.10
21502;DHT22;27639;48.674;9.242;2024-01-15T01:07:03;1.90;53.10
21502;DHT22;27639;48.674;9.242;2024-01-15T01:09:29;1.80;53.10
21502;DHT22;27639;48.674;9.242;2024-01-15T01:11:56;1.70;53.10
21502;DHT22;27639;48.674;9.242;2024-01-15T01:14:22;1.70;53.20
21502;DHT22;27639;48.674;9.242;2024-01-15T01:16:47;1.80;53.20
21502;DHT22;27639;48.674;9.242;2024-01-15T01:19:13;1.80;53.10
21502;DHT22;27639;48.674;9.242;2024-01-15T01:21:39;1.80;52.90
21502;DHT22;27639;48.674;9.242;2024-01-15T01:24:05;1.80;53.00
21502;DHT22;27639;48.674;9.242;2024-01-15T01:26:30;1.80;53.00
21502;DHT22;27639;48.674;9.242;2024-01-15T01:28:56;1.90;53.00
21502;DHT22;27639;48.674;9.242;2024-01-15T01:31:23;1.90;53.00
21502;DHT22;27639;48.674;9.242;2024-01-15T01:33:49;1.90;52.90
21502;DHT22;27639;48.674;9.242;2024-01-15T01:36:14;1.90;53.00
21502;DHT22;27639;48.674;9.242;2024-01-15T01:38:40;1.90;53.20
21502;DHT22;27639;48.674;9.242;2024-01-15T01:41:06;1.90;53.30
21502;DHT22;27639;48.674;9.242;2024-01-15T01:43:32;1.80;53.20
21502;DHT22;27639;48.674;9.242;2024-01-15T01:45:57;1.80;53.30
21502;DHT22;27639;48.674;9.242;2024-01-15T01:48:26;1.80;53.30
21502;DHT22;27639;48.674;9.242;2024-01-15T01:50:58;1.80;53.40
21502;DHT22;27639;48.674;9.242;2024-01-15T01:53:26;1.80;53.50
21502;DHT22;27639;48.674;9.242;2024-01-15T01:55:52;1.80;53.60
21502;DHT22;27639;48.674;9.242;2024-01-15T01:58:19;1.80;53.60
21502;DHT22;27639;48.674;9.242;2024-01-15T02:00:46;1.90;53.50
21502;DHT22;27639;48.674;9.242;2024-01-15T02:03:12;1.90;53.50
21502;DHT22;27639;48.674;9.242;2024-01-15T02:05:39;1.80;53.40
21502;DHT22;27639;48.674;9.242;2024-01-15T02:08:05;1.90;53.50
21502;DHT22;27639;48.674;9.242;2024-01-15T02:10:31;2.00;53.40
21502;DHT22;27639;48.674;9.242;2024-01-15T02:12:56;2.00;53.30
21502;DHT22;27639;48.674;9.242;2024-01-15T02:15:22;2.00;53.30
21502;DHT22;27639;48.674;9.242;2024-01-15T02:18:02;2.00;53.20
21502;DHT22;27639;48.674;9.242;2024-01-15T02:20:28;2.00;53.20
21502;DHT22;27639;48.674;9.242;2024-01-15T02:23:01;2.00;53.40
21502;DHT22;27639;48.674;9.242;2024-01-15T02:25:26;2.00;54.20
21502;DHT22;27639;48.674;9.242;2024-01-15T02:27:52;2.00;53.60
21502;DHT22;27639;48.674;9.242;2024-01-15T02:30:18;2.00;53.60
21502;DHT22;27639;48.674;9.242;2024-01-15T02:32:43;2.00;53.60
21502;DHT22;27639;48.674;9.242;2024-01-15T02:35:09;1.90;53.60
21502;DHT22;27639;48.674;9.242;2024-01-15T02:37:34;1.90;53.70
21502;DHT22;27639;48.674;9.242;2024-01-15T02:40:01;1.90;53.90
21502;DHT22;27639;48.674;9.242;2024-01-15T02:42:26;1.90;53.70
21502;DHT22;27639;48.674;9.242;2024-01-15T02:44:52;2.00;53.80
21502;DHT22;27639;48.674;9.242;2024-01-15T02:47:17;2.00;53.90
21502;DHT22;27639;48.674;9.242;2024-01-15T02:49:43;2.00;53.80
21502;DHT22;27639;48.674;9.242;2024-01-15T02:52:08;2.00;53.80
21502;DHT22;27639;48.674;9.242;2024-01-15T02:54:34;2.00;53.80
21502;DHT22;27639;48.674;9.242;2024-01-15T02:56:59;2.00;53.80
21502;DHT22;27639;48.674;9.242;2024-01-15T02:59:25;2.10;53.70
21502;DHT22;27639;48.674;9.242;2024-01-15T03:01:51;2.10;53.60
21502;DHT22;27639;48.674;9.242;2024-01-15T03:04:16;2.20;53.60
21502;DHT22;27639;48.674;9.242;2024-01-15T03:06:42;2.20;53.60
21502;DHT22;27639;48.674;9.242;2024-01-15T03:09:07;2.20;53.50
21502;DHT22;27639;48.674;9.242;2024-01-15T03:11:39;2.20;53.40
21502;DHT22;27639;48.674;9.242;2024-01-15T03:14:05;2.20;53.50
21502;DHT22;27639;48.674;9.242;2024-01-15T03:16:30;2.20;53.50
21502;DHT22;27639;48.674;9.242;2024-01-15T03:18:56;2.20;53.60
21502;DHT22;27639;48.674;9.242;2024-01-15T03:21:21;2.20;53.60
21502;DHT22;27639;48.674;9.242;2024-01-15T03:23:47;2.10;53.60
21502;DHT22;27639;48.674;9.242;2024-01-15T03:26:12;2.10;53.80
21502;DHT22;27639;48.674;9.242;2024-01-15T03:28:38;2.00;53.80
21502;DHT22;27639;48.674;9.242;2024-01-15T03:31:03;2.00;53.90
21502;DHT22;27639;48.674;9.242;2024-01-15T03:33:30;1.90;54.10
21502;DHT22;27639;48.674;9.242;2024-01-15T03:35:55;1.90;54.20
21502;DHT22;27639;48.674;9.242;2024-01-15T03:38:22;1.90;54.30
21502;DHT22;27639;48.674;9.242;2024-01-15T03:40:47;1.90;54.20
21502;DHT22;27639;48.674;9.242;2024-01-15T03:43:13;1.90;54.50
21502;DHT22;27639;48.674;9.242;2024-01-15T03:45:39;1.80;54.50
21502;DHT22;27639;48.674;9.242;2024-01-15T03:48:04;1.80;54.50
21502;DHT22;27639;48.674;9.242;2024-01-15T03:50:30;1.80;54.50
21502;DHT22;27639;48.674;9.242;2024-01-15T03:52:55;1.80;54.50
21502;DHT22;27639;48.674;9.242;2024-01-15T03:55:21;1.80;54.50
21502;DHT22;27639;48.674;9.242;2024-01-15T03:57:47;1.80;54.70
21502;DHT22;27639;48.674;9.242;2024-01-15T04:00:14;1.90;54.70
21502;DHT22;27639;48.674;9.242;2024-01-15T04:02:39;1.90;54.70
21502;DHT22;27639;48.674;9.242;2024-01-15T04:05:05;1.90;54.70
21502;DHT22;27639;48.674;9.242;2024-01-15T04:07:31;1.90;54.70
21502;DHT22;27639;48.674;9.242;2024-01-15T04:09:56;1.90;54.80
21502;DHT22;27639;48.674;9.242;2024-01-15T04:12:22;1.90;54.80
21502;DHT22;27639;48.674;9.242;2024-01-15T04:14:47;2.00;54.80
21502;DHT22;27639;48.674;9.242;2024-01-15T04:17:13;2.00;54.90
21502;DHT22;27639;48.674;9.242;2024-01-15T04:19:38;1.90;55.00
21502;DHT22;27639;48.674;9.242;2024-01-15T04:22:04;1.90;55.10
21502;DHT22;27639;48.674;9.242;2024-01-15T04:24:31;2.00;55.10
21502;DHT22;27639;48.674;9.242;2024-01-15T04:26:57;2.00;55.10
21502;DHT22;27639;48.674;9.242;2024-01-15T04:29:22;2.00;55.20
21502;DHT22;27639;48.674;9.242;2024-01-15T04:31:48;2.00;55.30
21502;DHT22;27639;48.674;9.242;2024-01-15T04:34:13;2.00;55.40
21502;DHT22;27639;48.674;9.242;2024-01-15T04:36:40;2.10;55.40
21502;DHT22;27639;48.674;9.242;2024-01-15T04:39:06;2.10;55.50
21502;DHT22;27639;48.674;9.242;2024-01-15T04:41:33;2.10;55.40
21502;DHT22;27639;48.674;9.242;2024-01-15T04:43:58;2.10;55.50
21502;DHT22;27639;48.674;9.242;2024-01-15T04:46:25;2.20;55.40
21502;DHT22;27639;48.674;9.242;2024-01-15T04:48:51;2.20;55.30
21502;DHT22;27639;48.674;9.242;2024-01-15T04:51:16;2.20;55.20
21502;DHT22;27639;48.674;9.242;2024-01-15T04:53:42;2.30;55.30
21502;DHT22;27639;48.674;9.242;2024-01-15T04:56:07;2.30;55.30
21502;DHT22;27639;48.674;9.242;2024-01-15T04:58:33;2.30;55.30
21502;DHT22;27639;48.674;9.242;2024-01-15T05:00:59;2.30;55.10
21502;DHT22;27639;48.674;9.242;2024-01-15T05:03:24;2.40;55.20
21502;DHT22;27639;48.674;9.242;2024-01-15T05:05:50;2.40;55.10
21502;DHT22;27639;48.674;9.242;2024-01-15T05:08:15;2.40;55.30
21502;DHT22;27639;48.674;9.242;2024-01-15T05:10:41;2.40;55.30
21502;DHT22;27639;48.674;9.242;2024-01-15T05:13:06;2.40;55.50
21502;DHT22;27639;48.674;9.242;2024-01-15T05:15:32;2.40;55.40
21502;DHT22;27639;48.674;9.242;2024-01-15T05:17:57;2.40;55.40
21502;DHT22;27639;48.674;9.242;2024-01-15T05:20:23;2.40;55.50
21502;DHT22;27639;48.674;9.242;2024-01-15T05:22:48;2.40;55.70
21502;DHT22;27639;48.674;9.242;2024-01-15T05:25:14;2.40;55.70
21502;DHT22;27639;48.674;9.242;2024-01-15T05:27:39;2.40;55.70
21502;DHT22;27639;48.674;9.242;2024-01-15T05:30:05;2.40;55.70
21502;DHT22;27639;48.674;9.242;2024-01-15T05:32:31;2.40;55.80
21502;DHT22;27639;48.674;9.242;2024-01-15T05:34:57;2.40;55.90
21502;DHT22;27639;48.674;9.242;2024-01-15T05:37:23;2.30;56.00
21502;DHT22;27639;48.674;9.242;2024-01-15T05:39:48;2.30;56.00
21502;DHT22;27639;48.674;9.242;2024-01-15T05:42:14;2.40;56.10
21502;DHT22;27639;48.674;9.242;2024-01-15T05:44:39;2.40;56.10
21502;DHT22;27639;48.674;9.242;2024-01-15T05:47:05;2.40;56.30
21502;DHT22;27639;48.674;9.242;2024-01-15T05:49:30;2.50;56.20
21502;DHT22;27639;48.674;9.242;2024-01-15T05:51:56;2.40;56.20
21502;DHT22;27639;48.674;9.242;2024-01-15T05:54:21;2.40;56.30
21502;DHT22;27639;48.674;9.242;2024-01-15T05:56:47;2.40;56.40
21502;DHT22;27639;48.674;9.242;2024-01-15T05:59:13;2.40;56.50
21502;DHT22;27639;48.674;9.242;2024-01-15T06:01:38;2.40;56.40
21502;DHT22;27639;48.674;9.242;2024-01-15T06:04:04;2.40;56.30
21502;DHT22;27639;48.674;9.242;2024-01-15T06:06:30;2.40;56.40
21502;DHT22;27639;48.674;9.242;2024-01-15T06:08:56;2.30;56.40
21502;DHT22;27639;48.674;9.242;2024-01-15T06:11:29;2.30;56.60
21502;DHT22;27639;48.674;9.242;2024-01-15T06:13:55;2.30;56.70
21502;DHT22;27639;48.674;9.242;2024-01-15T06:16:21;2.30;57.30
21502;DHT22;27639;48.674;9.242;2024-01-15T06:18:47;2.30;56.60
21502;DHT22;27639;48.674;9.242;2024-01-15T06:21:12;2.30;56.60
21502;DHT22;27639;48.674;9.242;2024-01-15T06:23:39;2.30;56.60
21502;DHT22;27639;48.674;9.242;2024-01-15T06:26:05;2.30;56.60
21502;DHT22;27639;48.674;9.242;2024-01-15T06:28:31;2.40;56.70
21502;DHT22;27639;48.674;9.242;2024-01-15T06:30:57;2.30;56.70
21502;DHT22;27639;48.674;9.242;2024-01-15T06:33:23;2.30;56.60
21502;DHT22;27639;48.674;9.242;2024-01-15T06:35:49;2.40;56.60
21502;DHT22;27639;48.674;9.242;2024-01-15T06:38:16;2.40;56.60
21502;DHT22;27639;48.674;9.242;2024-01-15T06:40:41;2.40;56.60
21502;DHT22;27639;48.674;9.242;2024-01-15T06:43:11;2.50;56.60
21502;DHT22;27639;48.674;9.242;2024-01-15T06:45:37;2.50;56.40
21502;DHT22;27639;48.674;9.242;2024-01-15T06:48:03;2.50;56.30
21502;DHT22;27639;48.674;9.242;2024-01-15T06:50:28;2.40;56.40
21502;DHT22;27639;48.674;9.242;2024-01-15T06:52:54;2.40;56.50
21502;DHT22;27639;48.674;9.242;2024-01-15T06:55:20;2.40;56.50
21502;DHT22;27639;48.674;9.242;2024-01-15T06:57:45;2.40;56.40
21502;DHT22;27639;48.674;9.242;2024-01-15T07:00:11;2.40;56.30
21502;DHT22;27639;48.674;9.242;2024-01-15T07:02:37;2.40;56.20
21502;DHT22;27639;48.674;9.242;2024-01-15T07:05:02;2.40;56.30
21502;DHT22;27639;48.674;9.242;2024-01-15T07:07:30;2.40;56.10
21502;DHT22;27639;48.674;9.242;2024-01-15T07:09:56;2.50;56.10
21502;DHT22;27639;48.674;9.242;2024-01-15T07:12:22;2.60;55.90
21502;DHT22;27639;48.674;9.242;2024-01-15T07:14:48;2.60;55.60
21502;DHT22;27639;48.674;9.242;2024-01-15T07:17:13;2.60;55.60
21502;DHT22;27639;48.674;9.242;2024-01-15T07:19:39;2.60;55.90
21502;DHT22;27639;48.674;9.242;2024-01-15T07:22:04;2.60;55.10
21502;DHT22;27639;48.674;9.242;2024-01-15T07:24:30;2.70;55.10
21502;DHT22;27639;48.674;9.242;2024-01-15T07:26:55;2.60;55.00
21502;DHT22;27639;48.674;9.242;2024-01-15T07:29:21;2.60;54.80
21502;DHT22;27639;48.674;9.242;2024-01-15T07:31:51;2.70;55.00
21502;DHT22;27639;48.674;9.242;2024-01-15T07:34:17;2.60;54.70
21502;DHT22;27639;48.674;9.242;2024-01-15T07:36:46;2.70;54.80
21502;DHT22;27639;48.674;9.242;2024-01-15T07:39:12;2.70;54.70
21502;DHT22;27639;48.674;9.242;2024-01-15T07:41:37;2.70;54.60
21502;DHT22;27639;48.674;9.242;2024-01-15T07:44:03;2.80;54.50
21502;DHT22;27639;48.674;9.242;2024-01-15T07:46:29;2.70;54.50
21502;DHT22;27639;48.674;9.242;2024-01-15T07:48:55;2.80;54.40
21502;DHT22;27639;48.674;9.242;2024-01-15T07:51:22;2.80;54.30
21502;DHT22;27639;48.674;9.242;2024-01-15T07:53:47;2.80;54.20
21502;DHT22;27639;48.674;9.242;2024-01-15T07:56:13;2.90;54.10
21502;DHT22;27639;48.674;9.242;2024-01-15T07:58:39;2.90;54.00
21502;DHT22;27639;48.674;9.242;2024-01-15T08:01:04;2.90;54.00
21502;DHT22;27639;48.674;9.242;2024-01-15T08:03:31;2.90;53.90
21502;DHT22;27639;48.674;9.242;2024-01-15T08:05:57;2.90;53.70
21502;DHT22;27639;48.674;9.242;2024-01-15T08:08:24;2.90;53.60
21502;DHT22;27639;48.674;9.242;2024-01-15T08:10:54;2.90;53.70
21502;DHT22;27639;48.674;9.242;2024-01-15T08:13:20;3.00;53.60
21502;DHT22;27639;48.674;9.242;2024-01-15T08:15:46;3.00;53.30
21502;DHT22;27639;48.674;9.242;2024-01-15T08:18:12;3.00;53.20
21502;DHT22;27639;48.674;9.242;2024-01-15T08:20:37;3.00;53.00
21502;DHT22;27639;48.674;9.242;2024-01-15T08:23:04;3.00;53.00
21502;DHT22;27639;48.674;9.242;2024-01-15T08:25:29;3.10;53.10
21502;DHT22;27639;48.674;9.242;2024-01-15T08:27:56;3.10;53.10
21502;DHT22;27639;48.674;9.242;2024-01-15T08:30:23;3.10;53.10
21502;DHT22;27639;48.674;9.242;2024-01-15T08:32:56;3.10;53.00
21502;DHT22;27639;48.674;9.242;2024-01-15T08:35:21;3.10;53.10
21502;DHT22;27639;48.674;9.242;2024-01-15T08:37:52;3.20;53.00
21502;DHT22;27639;48.674;9.242;2024-01-15T08:40:18;3.30;53.00
21502;DHT22;27639;48.674;9.242;2024-01-15T08:42:43;3.30;52.80
21502;DHT22;27639;48.674;9.242;2024-01-15T08:45:09;3.30;52.70
21502;DHT22;27639;48.674;9.242;2024-01-15T08:47:35;3.40;52.60
21502;DHT22;27639;48.674;9.242;2024-01-15T08:50:01;3.50;52.70
21502;DHT22;27639;48.674;9.242;2024-01-15T08:52:28;3.50;52.50
21502;DHT22;27639;48.674;9.242;2024-01-15T08:54:56;3.50;52.40
21502;DHT22;27639;48.674;9.242;2024-01-15T08:57:21;3.50;52.20
21502;DHT22;27639;48.674;9.242;2024-01-15T08:59:47;3.50;52.10
21502;DHT22;27639;48.674;9.242;2024-01-15T09:02:13;3.50;52.10
21502;DHT22;27639;48.674;9.242;2024-01-15T09:04:39;3.50;52.10
21502;DHT22;27639;48.674;9.242;2024-01-15T09:07:04;3.50;52.10
21502;DHT22;27639;48.674;9.242;2024-01-15T09:09:30;3.50;52.00
21502;DHT22;27639;48.674;9.242;2024-01-15T09:11:55;3.60;51.90
21502;DHT22;27639;48.674;9.242;2024-01-15T09:14:21;3.60;51.90
21502;DHT22;27639;48.674;9.242;2024-01-15T09:16:49;3.60;51.70
21502;DHT22;27639;48.674;9.242;2024-01-15T09:19:15;3.70;51.60
21502;DHT22;27639;48.674;9.242;2024-01-15T09:21:40;3.70;51.70
21502;DHT22;27639;48.674;9.242;2024-01-15T09:24:06;3.80;51.50
21502;DHT22;27639;48.674;9.242;2024-01-15T09:26:32;3.80;51.40
21502;DHT22;27639;48.674;9.242;2024-01-15T09:28:57;3.70;51.20
21502;DHT22;27639;48.674;9.242;2024-01-15T09:31:23;3.80;51.20
21502;DHT22;27639;48.674;9.242;2024-01-15T09:33:49;3.80;51.20
21502;DHT22;27639;48.674;9.242;2024-01-15T09:36:17;3.80;51.20
21502;DHT22;27639;48.674;9.242;2024-01-15T09:38:43;3.80;51.00
21502;DHT22;27639;48.674;9.242;2024-01-15T09:41:08;3.90;51.10
21502;DHT22;27639;48.674;9.242;2024-01-15T09:43:35;3.90;51.10
21502;DHT22;27639;48.674;9.242;2024-01-15T09:46:03;3.90;51.00
21502;DHT22;27639;48.674;9.242;2024-01-15T09:48:28;4.00;50.70
21502;DHT22;27639;48.674;9.242;2024-01-15T09:50:55;3.90;50.70
21502;DHT22;27639;48.674;9.242;2024-01-15T09:53:21;3.90;50.80
21502;DHT22;27639;48.674;9.242;2024-01-15T09:55:47;4.00;50.70
21502;DHT22;27639;48.674;9.242;2024-01-15T09:58:15;4.00;50.70
21502;DHT22;27639;48.674;9.242;2024-01-15T10:00:41;4.10;50.50
21502;DHT22;27639;48.674;9.242;2024-01-15T10:03:09;4.10;50.20
21502;DHT22;27639;48.674;9.242;2024-01-15T10:05:37;4.10;50.40
21502;DHT22;27639;48.674;9.242;2024-01-15T10:08:03;4.10;50.10
21502;DHT22;27639;48.674;9.242;2024-01-15T10:10:29;4.10;50.30
21502;DHT22;27639;48.674;9.242;2024-01-15T10:12:55;4.20;50.30
21502;DHT22;27639;48.674;9.242;2024-01-15T10:15:23;4.30;50.40
21502;DHT22;27639;48.674;9.242;2024-01-15T10:17:50;4.40;50.20
21502;DHT22;27639;48.674;9.242;2024-01-15T10:20:16;4.40;50.20
21502;DHT22;27639;48.674;9.242;2024-01-15T10:22:42;4.30;49.90
21502;DHT22;27639;48.674;9.242;2024-01-15T10:25:12;4.40;49.90
21502;DHT22;27639;48.674;9.242;2024-01-15T10:27:39;4.30;50.00
21502;DHT22;27639;48.674;9.242;2024-01-15T10:30:06;4.40;50.00
21502;DHT22;27639;48.674;9.242;2024-01-15T10:32:32;4.40;49.80
21502;DHT22;27639;48.674;9.242;2024-01-15T10:34:57;4.30;49.70
21502;DHT22;27639;48.674;9.242;2024-01-15T10:37:24;4.30;49.80
21502;DHT22;27639;48.674;9.242;2024-01-15T10:39:49;4.30;50.00
21502;DHT22;27639;48.674;9.242;2024-01-15T10:42:15;4.40;50.10
21502;DHT22;27639;48.674;9.242;2024-01-15T10:44:43;4.40;50.00
21502;DHT22;27639;48.674;9.242;2024-01-15T10:47:09;4.50;50.00
21502;DHT22;27639;48.674;9.242;2024-01-15T10:49:34;4.50;50.00
21502;DHT22;27639;48.674;9.242;2024-01-15T10:52:01;4.40;49.80
21502;DHT22;27639;48.674;9.242;2024-01-15T10:54:27;4.50;50.00
21502;DHT22;27639;48.674;9.242;2024-01-15T10:56:53;4.50;50.00
21502;DHT22;27639;48.674;9.242;2024-01-15T10:59:21;4.50;50.00
21502;DHT22;27639;48.674;9.242;2024-01-15T11:01:49;4.50;50.00
21502;DHT22;27639;48.674;9.242;2024-01-15T11:04:15;4.50;50.00
21502;DHT22;27639;48.674;9.242;2024-01-15T11:06:45;4.50;50.00
21502;DHT22;27639;48.674;9.242;2024-01-15T11:09:12;4.50;50.10
21502;DHT22;27639;48.674;9.242;2024-01-15T11:11:44;4.50;50.00
21502;DHT22;27639;48.674;9.242;2024-01-15T11:14:10;4.50;50.20
21502;DHT22;27639;48.674;9.242;2024-01-15T11:16:55;4.50;50.30
21502;DHT22;27639;48.674;9.242;2024-01-15T11:19:22;4.50;50.20
21502;DHT22;27639;48.674;9.242;2024-01-15T11:21:47;4.50;50.50
21502;DHT22;27639;48.674;9.242;2024-01-15T11:24:33;4.50;50.50
21502;DHT22;27639;48.674;9.242;2024-01-15T11:27:00;4.50;50.50
21502;DHT22;27639;48.674;9.242;2024-01-15T11:29:33;4.40;50.80
21502;DHT22;27639;48.674;9.242;2024-01-15T11:37:16;4.50;51.20
21502;DHT22;27639;48.674;9.242;2024-01-15T11:39:45;4.50;51.30
21502;DHT22;27639;48.674;9.242;2024-01-15T11:42:12;4.50;51.20
21502;DHT22;27639;48.674;9.242;2024-01-15T11:44:39;4.50;51.20
21502;DHT22;27639;48.674;9.242;2024-01-15T11:47:12;4.40;51.50
21502;DHT22;27639;48.674;9.242;2024-01-15T11:52:22;4.50;52.00
21502;DHT22;27639;48.674;9.242;2024-01-15T11:55:06;4.40;52.20
21502;DHT22;27639;48.674;9.242;2024-01-15T12:00:15;4.30;52.50
21502;DHT22;27639;48.674;9.242;2024-01-15T12:02:45;4.30;52.40
21502;DHT22;27639;48.674;9.242;2024-01-15T12:05:13;4.30;52.60
21502;DHT22;27639;48.674;9.242;2024-01-15T12:07:42;4.30;52.70
21502;DHT22;27639;48.674;9.242;2024-01-15T12:10:19;4.20;53.00
21502;DHT22;27639;48.674;9.242;2024-01-15T12:13:14;4.30;53.30
21502;DHT22;27639;48.674;9.242;2024-01-15T12:15:41;4.30;53.70
21502;DHT22;27639;48.674;9.242;2024-01-15T12:18:08;4.20;54.20
21502;DHT22;27639;48.674;9.242;2024-01-15T12:20:34;4.20;54.60
21502;DHT22;27639;48.674;9.242;2024-01-15T12:23:01;4.20;54.90
21502;DHT22;27639;48.674;9.242;2024-01-15T12:25:29;4.20;55.20
21502;DHT22;27639;48.674;9.242;2024-01-15T12:27:56;4.20;55.60
21502;DHT22;27639;48.674;9.242;2024-01-15T12:30:22;4.20;55.90
21502;DHT22;27639;48.674;9.242;2024-01-15T12:32:47;4.20;55.70
21502;DHT22;27639;48.674;9.242;2024-01-15T12:35:14;4.30;56.00
21502;DHT22;27639;48.674;9.242;2024-01-15T12:37:40;4.30;56.20
21502;DHT22;27639;48.674;9.242;2024-01-15T12:40:07;4.30;56.20
21502;DHT22;27639;48.674;9.242;2024-01-15T12:42:35;4.30;56.30
21502;DHT22;27639;48.674;9.242;2024-01-15T12:45:01;4.30;56.30
21502;DHT22;27639;48.674;9.242;2024-01-15T12:47:26;4.30;56.40
21502;DHT22;27639;48.674;9.242;2024-01-15T12:49:52;4.30;56.40
21502;DHT22;27639;48.674;9.242;2024-01-15T12:52:21;4.30;56.80
21502;DHT22;27639;48.674;9.242;2024-01-15T12:54:51;4.10;57.30
21502;DHT22;27639;48.674;9.242;2024-01-15T12:57:17;4.20;57.40
21502;DHT22;27639;48.674;9.242;2024-01-15T12:59:43;4.20;57.50
21502;DHT22;27639;48.674;9.242;2024-01-15T13:02:10;4.20;57.50
21502;DHT22;27639;48.674;9.242;2024-01-15T13:04:37;4.10;58.00
21502;DHT22;27639;48.674;9.242;2024-01-15T13:07:02;4.10;58.00
21502;DHT22;27639;48.674;9.242;2024-01-15T13:09:28;4.10;58.30
21502;DHT22;27639;48.674;9.242;2024-01-15T13:11:55;4.10;58.30
21502;DHT22;27639;48.674;9.242;2024-01-15T13:14:20;4.20;58.30
21502;DHT22;27639;48.674;9.242;2024-01-15T13:16:46;4.20;58.10
21502;DHT22;27639;48.674;9.242;2024-01-15T13:19:12;4.30;58.30
21502;DHT22;27639;48.674;9.242;2024-01-15T13:21:41;4.30;58.20
21502;DHT22;27639;48.674;9.242;2024-01-15T13:24:07;4.30;58.30
21502;DHT22;27639;48.674;9.242;2024-01-15T13:26:36;4.30;58.30
21502;DHT22;27639;48.674;9.242;2024-01-15T13:29:03;4.30;58.30
21502;DHT22;27639;48.674;9.242;2024-01-15T13:31:34;4.30;58.40
21502;DHT22;27639;48.674;9.242;2024-01-15T13:34:00;4.20;58.80
21502;DHT22;27639;48.674;9.242;2024-01-15T13:36:26;4.20;58.80
21502;DHT22;27639;48.674;9.242;2024-01-15T13:38:53;4.20;58.70
21502;DHT22;27639;48.674;9.242;2024-01-15T13:41:20;4.20;58.80
21502;DHT22;27639;48.674;9.242;2024-01-15T13:43:53;4.20;58.80
21502;DHT22;27639;48.674;9.242;2024-01-15T13:46:25;4.10;59.10
21502;DHT22;27639;48.674;9.242;2024-01-15T13:48:54;4.10;59.20
21502;DHT22;27639;48.674;9.242;2024-01-15T13:51:22;4.10;59.20
21502;DHT22;27639;48.674;9.242;2024-01-15T13:53:49;4.10;59.30
21502;DHT22;27639;48.674;9.242;2024-01-15T13:56:15;4.10;59.80
21502;DHT22;27639;48.674;9.242;2024-01-15T13:58:41;4.10;59.20
21502;DHT22;27639;48.674;9.242;2024-01-15T14:01:06;4.20;59.20
21502;DHT22;27639;48.674;9.242;2024-01-15T14:03:32;4.10;59.40
21502;DHT22;27639;48.674;9.242;2024-01-15T14:05:58;4.10;59.40
21502;DHT22;27639;48.674;9.242;2024-01-15T14:08:24;4.10;59.30
21502;DHT22;27639;48.674;9.242;2024-01-15T14:10:49;4.20;59.40
21502;DHT22;27639;48.674;9.242;2024-01-15T14:13:15;4.20;59.30
21502;DHT22;27639;48.674;9.242;2024-01-15T14:15:40;4.20;59.30
21502;DHT22;27639;48.674;9.242;2024-01-15T14:18:06;4.20;59.40
21502;DHT22;27639;48.674;9.242;2024-01-15T14:20:32;4.30;59.50
21502;DHT22;27639;48.674;9.242;2024-01-15T14:22:58;4.30;59.40
21502;DHT22;27639;48.674;9.242;2024-01-15T14:25:24;4.20;59.50
21502;DHT22;27639;48.674;9.242;2024-01-15T14:27:50;4.30;59.50
21502;DHT22;27639;48.674;9.242;2024-01-15T14:30:16;4.30;59.40
21502;DHT22;27639;48.674;9.242;2024-01-15T14:32:42;4.30;59.50
21502;DHT22;27639;48.674;9.242;2024-01-15T14:35:08;4.30;59.50
21502;DHT22;27639;48.674;9.242;2024-01-15T14:37:37;4.40;59.50
21502;DHT22;27639;48.674;9.242;2024-01-15T14:40:04;4.40;59.50
21502;DHT22;27639;48.674;9.242;2024-01-15T14:42:32;4.40;59.40
21502;DHT22;27639;48.674;9.242;2024-01-15T14:44:57;4.40;59.50
21502;DHT22;27639;48.674;9.242;2024-01-15T14:47:23;4.30;59.40
21502;DHT22;27639;48.674;9.242;2024-01-15T14:49:49;4.30;59.50
21502;DHT22;27639;48.674;9.242;2024-01-15T14:52:15;4.30;59.60
21502;DHT22;27639;48.674;9.242;2024-01-15T14:54:41;4.20;60.30
21502;DHT22;27639;48.674;9.242;2024-01-15T14:57:07;4.00;60.40
21502;DHT22;27639;48.674;9.242;2024-01-15T14:59:32;3.90;60.30
21502;DHT22;27639;48.674;9.242;2024-01-15T15:01:58;3.90;60.20
21502;DHT22;27639;48.674;9.242;2024-01-15T15:04:24;3.90;60.30
21502;DHT22;27639;48.674;9.242;2024-01-15T15:06:49;3.90;60.00
21502;DHT22;27639;48.674;9.242;2024-01-15T15:09:15;3.90;60.10
21502;DHT22;27639;48.674;9.242;2024-01-15T15:11:41;3.90;60.10
21502;DHT22;27639;48.674;9.242;2024-01-15T15:14:06;3.80;60.00
21502;DHT22;27639;48.674;9.242;2024-01-15T15:16:32;3.80;60.20
21502;DHT22;27639;48.674;9.242;2024-01-15T15:18:58;3.80;60.20
21502;DHT22;27639;48.674;9.242;2024-01-15T15:21:23;3.80;60.10
21502;DHT22;27639;48.674;9.242;2024-01-15T15:23:49;3.90;60.00
21502;DHT22;27639;48.674;9.242;2024-01-15T15:26:14;3.80;60.00
21502;DHT22;27639;48.674;9.242;2024-01-15T15:28:40;3.80;60.00
21502;DHT22;27639;48.674;9.242;2024-01-15T15:31:06;3.90;60.00
21502;DHT22;27639;48.674;9.242;2024-01-15T15:33:37;3.90;59.90
21502;DHT22;27639;48.674;9.242;2024-01-15T15:36:03;3.90;59.80
21502;DHT22;27639;48.674;9.242;2024-01-15T15:38:31;3.90;59.70
21502;DHT22;27639;48.674;9.242;2024-01-15T15:40:56;3.90;59.50
21502;DHT22;27639;48.674;9.242;2024-01-15T15:43:22;3.90;59.20
21502;DHT22;27639;48.674;9.242;2024-01-15T15:45:48;3.80;59.10
21502;DHT22;27639;48.674;9.242;2024-01-15T15:48:13;3.80;59.00
21502;DHT22;27639;48.674;9.242;2024-01-15T15:50:39;3.70;58.90